Time;durP1;ratioP1;P1;durP2;ratioP2;P2;SDS_P1;SDS_P2;PMS_P1;PMS_P2;Temp;Humidity;BMP_temperature;BMP_pressure;BME280_temperature;BME280_humidity;BME280_pressure;Samples;Min_cycle;Max_cycle;Signal;HPM_P1;HPM_P2
2021/05/08 00:01:00;;;;;;;15.85;5.68;;;;;;;-143.98;100.00;68091.63;5083870;28;20347;-87
2021/05/08 00:03:30;;;;;;;15.65;5.05;;;;;;;-143.98;100.00;68091.63;5064119;28;20048;-88
2021/05/08 00:05:56;;;;;;;12.70;4.97;;;;;;;-143.98;100.00;68091.63;5065650;28;20068;-88
2021/05/08 00:08:22;;;;;;;19.27;5.95;;;;;;;-143.98;100.00;68091.63;5066211;28;20125;-88
2021/05/08 00:10:48;;;;;;;16.55;7.00;;;;;;;-143.98;100.00;68091.63;5064827;28;20389;-87
2021/05/08 00:13:15;;;;;;;16.63;6.28;;;;;;;-143.98;100.00;68091.63;5048401;28;20052;-87
2021/05/08 00:15:44;;;;;;;12.85;5.70;;;;;;;-143.98;100.00;68091.63;5066044;28;20048;-88
2021/05/08 00:18:10;;;;;;;13.25;6.20;;;;;;;-143.98;100.00;68091.63;5066504;28;20424;-87
2021/05/08 00:20:43;;;;;;;19.27;6.72;;;;;;;-143.98;100.00;68091.63;5049306;28;20056;-87
2021/05/08 00:23:09;;;;;;;15.93;6.53;;;;;;;-143.98;100.00;68091.63;5065050;28;20272;-87
2021/05/08 00:25:38;;;;;;;19.92;7.13;;;;;;;-143.98;100.00;68091.63;5065437;28;20289;-87
2021/05/08 00:28:07;;;;;;;18.15;7.30;;;;;;;-143.98;100.00;68091.63;5049435;28;20053;-88
2021/05/08 00:30:34;;;;;;;13.25;7.38;;;;;;;-143.98;100.00;68091.63;5070989;28;20063;-87
2021/05/08 00:33:03;;;;;;;14.57;7.05;;;;;;;-143.98;100.00;68091.63;5069312;28;20044;-87
2021/05/08 00:35:33;;;;;;;18.38;6.38;;;;;;;-143.98;100.00;68091.63;5066941;28;20117;-86
2021/05/08 00:37:59;;;;;;;17.27;6.35;;;;;;;-143.98;100.00;68091.63;5049284;28;20143;-86
2021/05/08 00:40:28;;;;;;;20.13;7.05;;;;;;;-143.98;100.00;68091.63;5065213;28;20052;-87
2021/05/08 00:42:54;;;;;;;11.52;6.22;;;;;;;-143.98;100.00;68091.63;5064417;28;20115;-86
2021/05/08 00:45:20;;;;;;;15.45;6.80;;;;;;;-143.98;100.00;68091.63;5065142;28;20060;-86
2021/05/08 00:47:48;;;;;;;20.15;6.93;;;;;;;-143.98;100.00;68091.63;5064393;28;20141;-88
2021/05/08 00:50:17;;;;;;;18.08;7.07;;;;;;;-143.98;100.00;68091.63;5048615;28;20048;-86
2021/05/08 00:52:44;;;;;;;15.15;6.95;;;;;;;-143.98;100.00;68091.63;5063322;28;20313;-86
2021/05/08 00:55:11;;;;;;;23.42;8.32;;;;;;;-143.98;100.00;68091.63;5047787;28;20087;-88
2021/05/08 00:57:37;;;;;;;16.75;7.45;;;;;;;-143.98;100.00;68091.63;5063945;28;20052;-87
2021/05/08 01:00:06;;;;;;;18.48;6.80;;;;;;;-143.98;100.00;68091.63;5065018;28;20052;-88
2021/05/08 01:02:41;;;;;;;15.70;7.55;;;;;;;-143.98;100.00;68091.63;5063880;28;20067;-87
2021/05/08 01:05:08;;;;;;;18.05;7.70;;;;;;;-143.98;100.00;68091.63;5064179;28;20276;-87
2021/05/08 01:07:39;;;;;;;15.48;7.35;;;;;;;-143.98;100.00;68091.63;5047227;28;20379;-86
2021/05/08 01:10:09;;;;;;;18.38;7.25;;;;;;;-143.98;100.00;68091.63;5064508;28;20048;-87
2021/05/08 01:12:36;;;;;;;19.65;7.72;;;;;;;-143.98;100.00;68091.63;5064790;28;20048;-88
2021/05/08 01:15:08;;;;;;;22.15;8.90;;;;;;;-143.98;100.00;68091.63;5047876;28;20056;-88
2021/05/08 01:17:41;;;;;;;18.20;8.45;;;;;;;-143.98;100.00;68091.63;5083637;28;20044;-88
2021/05/08 01:20:09;;;;;;;19.42;6.45;;;;;;;-143.98;100.00;68091.63;5066527;28;20053;-86
2021/05/08 01:22:36;;;;;;;20.13;7.03;;;;;;;-143.98;100.00;68091.63;5078367;28;20059;-84
2021/05/08 01:25:11;;;;;;;18.52;7.28;;;;;;;-143.98;100.00;68091.63;5077056;28;20060;-85
2021/05/08 01:27:48;;;;;;;15.27;8.07;;;;;;;-143.98;100.00;68091.63;5082624;28;20052;-87
2021/05/08 01:30:17;;;;;;;24.45;8.38;;;;;;;-143.98;100.00;68091.63;5065063;28;20052;-87
2021/05/08 01:32:44;;;;;;;17.95;8.18;;;;;;;-143.98;100.00;68091.63;5047616;28;20048;-87
2021/05/08 01:35:20;;;;;;;24.08;9.20;;;;;;;-143.98;100.00;68091.63;5049422;28;20086;-87
2021/05/08 01:37:46;;;;;;;22.83;9.88;;;;;;;-143.98;100.00;68091.63;5065902;28;20052;-86
2021/05/08 01:40:13;;;;;;;23.40;9.77;;;;;;;-143.98;100.00;68091.63;5066345;28;20052;-87
2021/05/08 01:42:45;;;;;;;18.88;9.05;;;;;;;-143.98;100.00;68091.63;5064104;28;20059;-86
2021/05/08 01:45:19;;;;;;;16.52;8.98;;;;;;;-143.98;100.00;68091.63;5082653;28;20067;-86
2021/05/08 01:47:46;;;;;;;25.15;9.43;;;;;;;-143.98;100.00;68091.63;5047289;28;20078;-87
2021/05/08 01:50:14;;;;;;;18.55;9.43;;;;;;;-143.98;100.00;68091.63;5065467;28;20045;-88
2021/05/08 01:52:41;;;;;;;19.73;8.93;;;;;;;-143.98;100.00;68091.63;5064883;28;20052;-88
2021/05/08 01:55:16;;;;;;;23.98;10.48;;;;;;;-143.98;100.00;68091.63;5047759;28;20673;-87
2021/05/08 01:57:54;;;;;;;19.40;10.43;;;;;;;-143.98;100.00;68091.63;5081729;28;20064;-88
2021/05/08 02:00:28;;;;;;;19.15;9.95;;;;;;;-143.98;100.00;68091.63;5055875;28;20051;-87
2021/05/08 02:02:55;;;;;;;20.85;9.50;;;;;;;-143.98;100.00;68091.63;5075596;28;20049;-87
2021/05/08 02:05:23;;;;;;;20.83;10.55;;;;;;;-143.98;100.00;68091.63;5075155;28;20044;-87
2021/05/08 02:07:53;;;;;;;19.98;10.23;;;;;;;-143.98;100.00;68091.63;5048640;28;20044;-88
2021/05/08 02:10:20;;;;;;;23.75;10.23;;;;;;;-143.98;100.00;68091.63;5064714;28;20052;-88
2021/05/08 02:12:46;;;;;;;26.15;10.80;;;;;;;-143.98;100.00;68091.63;5064426;28;20125;-87
2021/05/08 02:15:26;;;;;;;17.50;9.05;;;;;;;-143.98;100.00;68091.63;5063671;28;20052;-87
2021/05/08 02:17:52;;;;;;;21.25;10.18;;;;;;;-143.98;100.00;68091.63;5047081;28;20045;-87
2021/05/08 02:20:23;;;;;;;20.35;10.30;;;;;;;-143.98;100.00;68091.63;5062791;28;20309;-86
2021/05/08 02:22:58;;;;;;;19.10;10.02;;;;;;;-143.98;100.00;68091.63;5062910;28;20049;-87
2021/05/08 02:25:25;;;;;;;19.85;9.50;;;;;;;-143.98;100.00;68091.63;5047268;28;20040;-87
2021/05/08 02:27:51;;;;;;;18.15;9.55;;;;;;;-143.98;100.00;68091.63;5064742;28;20059;-87
2021/05/08 02:30:23;;;;;;;20.67;9.02;;;;;;;-143.98;100.00;68091.63;5059350;28;20056;-87
2021/05/08 02:33:03;;;;;;;14.85;9.38;;;;;;;-143.98;100.00;68091.63;5073828;28;20083;-87
2021/05/08 02:35:32;;;;;;;15.52;8.18;;;;;;;-143.98;100.00;68091.63;5061004;28;20044;-87
2021/05/08 02:37:58;;;;;;;17.50;8.48;;;;;;;-143.98;100.00;68091.63;5061075;28;20046;-87
2021/05/08 02:40:29;;;;;;;18.20;9.63;;;;;;;-143.98;100.00;68091.63;5053785;28;20052;-87
2021/05/08 02:42:56;;;;;;;16.75;9.98;;;;;;;-143.98;100.00;68091.63;5097231;28;20048;-87
2021/05/08 02:45:22;;;;;;;14.00;8.93;;;;;;;-143.98;100.00;68091.63;5081391;28;20052;-86
2021/05/08 02:47:50;;;;;;;14.13;9.35;;;;;;;-143.98;100.00;68091.63;5074843;28;20072;-86
2021/05/08 02:50:18;;;;;;;13.68;9.25;;;;;;;-143.98;100.00;68091.63;5068131;28;20588;-87
2021/05/08 02:52:45;;;;;;;16.70;9.70;;;;;;;-143.98;100.00;68091.63;5069894;28;20052;-87
2021/05/08 02:55:13;;;;;;;17.33;9.10;;;;;;;-143.98;100.00;68091.63;5061813;28;20101;-86
2021/05/08 02:57:40;;;;;;;13.18;8.60;;;;;;;-143.98;100.00;68091.63;5079245;28;20052;-87
2021/05/08 03:00:14;;;;;;;16.77;10.07;;;;;;;-143.98;100.00;68091.63;5051634;28;20052;-87
2021/05/08 03:02:40;;;;;;;21.42;10.02;;;;;;;-143.98;100.00;68091.63;5066878;28;20440;-86
2021/05/08 03:05:07;;;;;;;16.30;9.35;;;;;;;-143.98;100.00;68091.63;5049577;28;20075;-87
2021/05/08 03:07:34;;;;;;;14.43;9.38;;;;;;;-143.98;100.00;68091.63;5067509;28;20052;-87
2021/05/08 03:10:07;;;;;;;18.17;9.85;;;;;;;-143.98;100.00;68091.63;5050934;28;20112;-87
2021/05/08 03:12:34;;;;;;;16.40;10.55;;;;;;;-143.98;100.00;68091.63;5068373;28;20075;-87
2021/05/08 03:15:00;;;;;;;18.63;9.13;;;;;;;-143.98;100.00;68091.63;5052544;28;20048;-87
2021/05/08 03:17:28;;;;;;;18.17;9.43;;;;;;;-143.98;100.00;68091.63;5051890;28;20052;-87
2021/05/08 03:19:57;;;;;;;15.57;9.80;;;;;;;-143.98;100.00;68091.63;5067052;28;20424;-87
2021/05/08 03:22:25;;;;;;;16.70;10.48;;;;;;;-143.98;100.00;68091.63;5035850;28;20531;-87
2021/05/08 03:24:52;;;;;;;16.00;9.95;;;;;;;-143.98;100.00;68091.63;5028420;28;20065;-87
2021/05/08 03:27:22;;;;;;;15.13;9.60;;;;;;;-143.98;100.00;68091.63;5013896;28;20057;-87
2021/05/08 03:29:48;;;;;;;11.73;8.45;;;;;;;-143.98;100.00;68091.63;5028657;28;20495;-87
2021/05/08 03:32:15;;;;;;;18.33;10.38;;;;;;;-143.98;100.00;68091.63;5028324;28;20048;-87
2021/05/08 03:34:41;;;;;;;15.65;10.93;;;;;;;-143.98;100.00;68091.63;5044975;28;20052;-87
2021/05/08 03:37:08;;;;;;;17.48;9.90;;;;;;;-143.98;100.00;68091.63;5030396;28;20048;-87
2021/05/08 03:39:34;;;;;;;15.32;9.38;;;;;;;-143.98;100.00;68091.63;5029967;28;20053;-87
2021/05/08 03:42:00;;;;;;;12.23;8.82;;;;;;;-143.98;100.00;68091.63;5030013;28;20082;-85
2021/05/08 03:44:42;;;;;;;16.98;9.57;;;;;;;-143.98;100.00;68091.63;5048101;28;20049;-86
2021/05/08 03:47:09;;;;;;;17.65;11.23;;;;;;;-143.98;100.00;68091.63;5031280;28;20093;-86
2021/05/08 03:49:39;;;;;;;15.95;10.20;;;;;;;-143.98;100.00;68091.63;5046489;28;20387;-86
2021/05/08 03:52:05;;;;;;;19.42;10.63;;;;;;;-143.98;100.00;68091.63;5048127;28;20049;-86
2021/05/08 03:54:38;;;;;;;17.15;9.68;;;;;;;-143.98;100.00;68091.63;5047160;28;20118;-86
2021/05/08 03:57:05;;;;;;;16.92;10.35;;;;;;;-143.98;100.00;68091.63;5030190;28;20064;-87
2021/05/08 03:59:34;;;;;;;21.73;10.85;;;;;;;-143.98;100.00;68091.63;5046650;28;20049;-86
2021/05/08 04:02:00;;;;;;;14.63;10.05;;;;;;;-143.98;100.00;68091.63;5046144;28;20045;-87
2021/05/08 04:04:33;;;;;;;18.30;10.35;;;;;;;-143.98;100.00;68091.63;5031155;28;20056;-86
2021/05/08 04:07:04;;;;;;;16.13;11.40;;;;;;;-143.98;100.00;68091.63;5047318;28;20053;-87
2021/05/08 04:09:39;;;;;;;17.15;10.73;;;;;;;-143.98;100.00;68091.63;5047977;28;20053;-87
2021/05/08 04:12:08;;;;;;;17.55;10.45;;;;;;;-143.98;100.00;68091.63;5030688;28;20067;-87
2021/05/08 04:14:34;;;;;;;14.45;10.70;;;;;;;-143.98;100.00;68091.63;5031426;28;20072;-86
2021/05/08 04:17:06;;;;;;;19.33;11.43;;;;;;;-143.98;100.00;68091.63;5048836;28;20061;-87
2021/05/08 04:19:38;;;;;;;15.80;11.48;;;;;;;-143.98;100.00;68091.63;5049184;28;20057;-87
2021/05/08 04:22:04;;;;;;;20.40;12.82;;;;;;;-143.98;100.00;68091.63;5065245;28;20463;-87
2021/05/08 04:24:39;;;;;;;18.77;10.82;;;;;;;-143.98;100.00;68091.63;5032061;28;20099;-87
2021/05/08 04:27:24;;;;;;;15.15;11.50;;;;;;;-143.98;100.00;68091.63;5048528;28;20048;-86
2021/05/08 04:29:52;;;;;;;16.33;11.82;;;;;;;-143.98;100.00;68091.63;5076038;28;20116;-86
2021/05/08 04:32:21;;;;;;;20.02;11.70;;;;;;;-143.98;100.00;68091.63;5058249;28;20049;-86
2021/05/08 04:34:47;;;;;;;24.73;12.57;;;;;;;-143.98;100.00;68091.63;5046386;28;20063;-87
2021/05/08 04:37:14;;;;;;;22.50;13.68;;;;;;;-143.98;100.00;68091.63;5038498;28;20298;-87
2021/05/08 04:39:40;;;;;;;16.10;11.48;;;;;;;-143.98;100.00;68091.63;5026568;28;20099;-87
2021/05/08 04:42:10;;;;;;;20.10;12.18;;;;;;;-143.98;100.00;68091.63;5026507;28;20430;-87
2021/05/08 04:44:42;;;;;;;16.95;11.52;;;;;;;-143.98;100.00;68091.63;5026433;28;20203;-87
2021/05/08 04:47:12;;;;;;;22.77;13.50;;;;;;;-143.98;100.00;68091.63;4982033;28;20050;-88
2021/05/08 04:49:42;;;;;;;16.38;9.70;;;;;;;-143.98;100.00;68091.63;5025213;28;20107;-87
2021/05/08 04:52:08;;;;;;;12.00;8.73;;;;;;;-143.98;100.00;68091.63;5030499;28;20210;-87
2021/05/08 04:54:39;;;;;;;11.48;7.43;;;;;;;-143.98;100.00;68091.63;5040835;28;20148;-88
2021/05/08 04:57:05;;;;;;;11.07;7.28;;;;;;;-143.98;100.00;68091.63;5019830;28;20057;-88
2021/05/08 04:59:31;;;;;;;9.95;6.78;;;;;;;-143.98;100.00;68091.63;5037028;28;20064;-88
2021/05/08 05:02:03;;;;;;;10.15;6.10;;;;;;;-143.98;100.00;68091.63;5029154;28;20049;-88
2021/05/08 05:04:37;;;;;;;9.50;5.95;;;;;;;-143.98;100.00;68091.63;5030101;28;20040;-89
2021/05/08 05:07:04;;;;;;;10.43;6.30;;;;;;;-143.98;100.00;68091.63;5023295;28;20053;-88
2021/05/08 05:09:33;;;;;;;10.70;5.55;;;;;;;-143.98;100.00;68091.63;5027680;28;20409;-88
2021/05/08 05:12:10;;;;;;;10.50;6.40;;;;;;;-143.98;100.00;68091.63;5035337;28;20049;-88
2021/05/08 05:14:40;;;;;;;7.45;5.95;;;;;;;-143.98;100.00;68091.63;5051457;28;20071;-88
2021/05/08 05:17:09;;;;;;;11.05;5.57;;;;;;;-143.98;100.00;68091.63;5024687;28;20115;-89
2021/05/08 05:19:38;;;;;;;12.75;5.93;;;;;;;-143.98;100.00;68091.63;5020487;28;20060;-88
2021/05/08 05:23:11;;;;;;;8.10;6.43;;;;;;;-143.98;100.00;68091.63;5026124;28;20059;-88
2021/05/08 05:25:38;;;;;;;13.60;6.70;;;;;;;-143.98;100.00;68091.63;5043284;28;20155;-88
2021/05/08 05:28:14;;;;;;;8.85;6.15;;;;;;;-143.98;100.00;68091.63;5024539;28;20049;-88
2021/05/08 05:30:40;;;;;;;;;;;;;;;-143.98;100.00;68091.63;5024937;28;20539;-89
2021/05/08 05:33:06;;;;;;;13.25;6.45;;;;;;;-143.98;100.00;68091.63;5023775;28;19921;-89
2021/05/08 05:35:32;;;;;;;8.80;6.47;;;;;;;-143.98;100.00;68091.63;5025323;28;20109;-88
2021/05/08 05:38:20;;;;;;;8.20;6.25;;;;;;;-143.98;100.00;68091.63;5041206;28;20072;-88
2021/05/08 05:40:51;;;;;;;8.88;6.20;;;;;;;-143.98;100.00;68091.63;5025203;28;20214;-88
2021/05/08 05:43:27;;;;;;;9.80;5.70;;;;;;;-143.98;100.00;68091.63;5023628;28;20046;-88
2021/05/08 05:45:55;;;;;;;11.52;6.78;;;;;;;-143.98;100.00;68091.63;5025357;28;20045;-88
2021/05/08 05:48:36;;;;;;;13.52;5.53;;;;;;;-143.98;100.00;68091.63;5042335;28;20423;-88
2021/05/08 05:51:02;;;;;;;10.18;5.57;;;;;;;-143.98;100.00;68091.63;5040466;28;20192;-88
2021/05/08 05:53:28;;;;;;;9.65;6.10;;;;;;;-143.98;100.00;68091.63;5042935;28;20049;-88
2021/05/08 05:55:57;;;;;;;7.55;5.50;;;;;;;-143.98;100.00;68091.63;5043616;28;20053;-88
2021/05/08 05:58:29;;;;;;;10.20;5.60;;;;;;;-143.98;100.00;68091.63;5026948;28;20049;-88
2021/05/08 06:00:59;;;;;;;9.02;5.00;;;;;;;-143.98;100.00;68091.63;5025805;28;20052;-88
2021/05/08 06:03:26;;;;;;;9.30;6.10;;;;;;;-143.98;100.00;68091.63;5043139;28;20082;-88
2021/05/08 06:05:58;;;;;;;9.00;6.05;;;;;;;-143.98;100.00;68091.63;5060443;28;20084;-88
2021/05/08 06:08:24;;;;;;;10.15;4.97;;;;;;;-143.98;100.00;68091.63;5043765;28;20057;-88
2021/05/08 06:10:56;;;;;;;9.27;4.78;;;;;;;-143.98;100.00;68091.63;5046520;28;20040;-88
2021/05/08 06:13:25;;;;;;;7.65;4.93;;;;;;;-143.98;100.00;68091.63;5055732;28;20037;-87
2021/05/08 06:16:00;;;;;;;6.60;4.65;;;;;;;-143.98;100.00;68091.63;5056558;28;20052;-87
2021/05/08 06:18:29;;;;;;;8.95;3.90;;;;;;;-143.98;100.00;68091.63;5026831;28;20041;-88
2021/05/08 06:21:02;;;;;;;6.63;3.65;;;;;;;-143.98;100.00;68091.63;5048634;28;20144;-88
2021/05/08 06:23:55;;;;;;;6.95;3.67;;;;;;;-143.98;100.00;68091.63;5026369;28;20102;-88
2021/05/08 06:26:21;;;;;;;6.93;3.30;;;;;;;-143.98;100.00;68091.63;5035668;28;20045;-89
2021/05/08 06:28:47;;;;;;;6.78;3.50;;;;;;;-143.98;100.00;68091.63;5052503;28;20059;-89
2021/05/08 06:31:14;;;;;;;8.65;3.42;;;;;;;-143.98;100.00;68091.63;5018436;28;20092;-88
2021/05/08 06:33:43;;;;;;;4.75;2.90;;;;;;;-143.98;100.00;68091.63;5006538;28;20107;-89
2021/05/08 06:36:09;;;;;;;7.80;3.60;;;;;;;-143.98;100.00;68091.63;5020922;28;20061;-89
2021/05/08 06:38:35;;;;;;;3.47;2.63;;;;;;;-143.98;100.00;68091.63;5039590;28;20053;-89
2021/05/08 06:41:11;;;;;;;8.95;3.25;;;;;;;-143.98;100.00;68091.63;5040235;28;20060;-89
2021/05/08 06:43:37;;;;;;;5.60;3.10;;;;;;;-143.98;100.00;68091.63;5038447;28;20057;-88
2021/05/08 06:46:03;;;;;;;8.45;2.83;;;;;;;-143.98;100.00;68091.63;5038969;28;20049;-88
2021/05/08 06:48:30;;;;;;;6.75;2.90;;;;;;;-143.98;100.00;68091.63;5021847;28;20049;-89
2021/05/08 06:50:59;;;;;;;7.57;3.42;;;;;;;-143.98;100.00;68091.63;5038685;28;20118;-88
2021/05/08 06:53:28;;;;;;;9.60;3.65;;;;;;;-143.98;100.00;68091.63;5021571;28;20111;-88
2021/05/08 06:55:55;;;;;;;9.75;3.33;;;;;;;-143.98;100.00;68091.63;5003925;28;20045;-88
2021/05/08 06:58:23;;;;;;;7.13;3.20;;;;;;;-143.98;100.00;68091.63;5020724;28;20054;-88
2021/05/08 07:01:10;;;;;;;6.55;3.42;;;;;;;-143.98;100.00;68091.63;5019799;28;20060;-88
2021/05/08 07:03:40;;;;;;;6.63;3.47;;;;;;;-143.98;100.00;68091.63;5007410;28;20049;-88
2021/05/08 07:06:06;;;;;;;12.45;3.60;;;;;;;-143.98;100.00;68091.63;5005537;28;20061;-88
2021/05/08 07:08:32;;;;;;;4.70;2.80;;;;;;;-143.98;100.00;68091.63;5004462;28;20537;-87
2021/05/08 07:11:03;;;;;;;6.53;3.45;;;;;;;-143.98;100.00;68091.63;5004976;28;20045;-87
2021/05/08 07:13:32;;;;;;;10.75;3.90;;;;;;;-143.98;100.00;68091.63;5038909;28;20060;-87
2021/05/08 07:16:02;;;;;;;6.03;2.90;;;;;;;-143.98;100.00;68091.63;5038087;28;20348;-88
2021/05/08 07:21:38;;;;;;;8.45;3.35;;;;;;;-143.98;100.00;68091.63;5044864;28;20057;-86
2021/05/08 07:24:06;;;;;;;7.90;3.08;;;;;;;-143.98;100.00;68091.63;5031959;28;20060;-86
2021/05/08 07:26:32;;;;;;;6.18;2.83;;;;;;;-143.98;100.00;68091.63;5027657;28;20061;-85
2021/05/08 07:29:08;;;;;;;5.90;3.03;;;;;;;-143.98;100.00;68091.63;5009928;28;20053;-86
2021/05/08 07:31:34;;;;;;;6.15;2.58;;;;;;;-143.98;100.00;68091.63;5015131;28;20060;-86
2021/05/08 07:34:01;;;;;;;6.65;2.72;;;;;;;-143.98;100.00;68091.63;5026355;28;20059;-86
2021/05/08 07:36:30;;;;;;;8.48;2.60;;;;;;;-143.98;100.00;68091.63;5013519;28;20067;-84
2021/05/08 07:38:57;;;;;;;4.30;2.33;;;;;;;-143.98;100.00;68091.63;5026676;28;20037;-86
2021/05/08 07:41:23;;;;;;;4.55;2.83;;;;;;;-143.98;100.00;68091.63;5056465;28;20049;-85
2021/05/08 07:43:56;;;;;;;4.45;2.28;;;;;;;-143.98;100.00;68091.63;5033538;28;20053;-85
2021/05/08 07:46:22;;;;;;;7.53;2.58;;;;;;;-143.98;100.00;68091.63;5048286;28;20051;-83
2021/05/08 07:48:49;;;;;;;4.68;2.50;;;;;;;-143.98;100.00;68091.63;5037128;28;20208;-85
2021/05/08 07:51:15;;;;;;;4.63;2.25;;;;;;;-143.98;100.00;68091.63;5036479;28;20080;-83
2021/05/08 07:53:49;;;;;;;7.15;2.92;;;;;;;-143.98;100.00;68091.63;5037349;28;20037;-86
2021/05/08 07:56:16;;;;;;;4.03;2.10;;;;;;;-143.98;100.00;68091.63;5033254;28;20053;-85
2021/05/08 07:58:42;;;;;;;4.07;2.40;;;;;;;-143.98;100.00;68091.63;5009335;28;20057;-86
2021/05/08 08:01:08;;;;;;;5.05;1.80;;;;;;;-143.98;100.00;68091.63;5026331;28;20049;-86
2021/05/08 08:03:35;;;;;;;5.53;2.53;;;;;;;-143.98;100.00;68091.63;5026052;28;20084;-85
2021/05/08 08:06:07;;;;;;;6.30;2.33;;;;;;;-143.98;100.00;68091.63;5010034;28;20050;-86
2021/05/08 08:08:38;;;;;;;5.90;2.50;;;;;;;-143.98;100.00;68091.63;5010137;28;20065;-85
2021/05/08 08:11:05;;;;;;;4.70;2.22;;;;;;;-143.98;100.00;68091.63;5025985;28;20068;-85
2021/05/08 08:13:37;;;;;;;3.38;2.10;;;;;;;-143.98;100.00;68091.63;5007960;28;20045;-85
2021/05/08 08:16:16;;;;;;;3.05;2.28;;;;;;;-143.98;100.00;68091.63;5024506;28;20453;-85
2021/05/08 08:18:42;;;;;;;4.60;2.42;;;;;;;-143.98;100.00;68091.63;5009071;28;20041;-85
2021/05/08 08:21:10;;;;;;;5.78;2.42;;;;;;;-143.98;100.00;68091.63;5036676;28;20061;-85
2021/05/08 08:23:37;;;;;;;9.38;2.53;;;;;;;-143.98;100.00;68091.63;5044729;28;20045;-85
2021/05/08 08:26:03;;;;;;;5.10;1.92;;;;;;;-143.98;100.00;68091.63;5063061;28;20168;-85
2021/05/08 08:28:34;;;;;;;6.55;2.42;;;;;;;-143.98;100.00;68091.63;5065141;28;20045;-85
2021/05/08 08:31:07;;;;;;;9.48;2.90;;;;;;;-143.98;100.00;68091.63;5065476;28;20060;-85
2021/05/08 08:33:37;;;;;;;4.30;2.08;;;;;;;-143.98;100.00;68091.63;5049274;28;20078;-85
2021/05/08 08:36:06;;;;;;;4.78;2.35;;;;;;;-143.98;100.00;68091.63;5064150;28;20139;-85
2021/05/08 08:38:33;;;;;;;6.28;2.08;;;;;;;-143.98;100.00;68091.63;5064110;28;20126;-85
2021/05/08 08:41:12;;;;;;;8.20;2.35;;;;;;;-143.98;100.00;68091.63;5065181;28;20159;-85
2021/05/08 08:43:39;;;;;;;5.38;1.88;;;;;;;-143.98;100.00;68091.63;5065939;28;20397;-85
2021/05/08 08:46:10;;;;;;;6.15;2.55;;;;;;;-143.98;100.00;68091.63;5049159;28;20366;-85
2021/05/08 08:48:46;;;;;;;7.57;2.53;;;;;;;-143.98;100.00;68091.63;5064955;28;20570;-86
2021/05/08 08:51:16;;;;;;;8.80;2.28;;;;;;;-143.98;100.00;68091.63;5048821;28;20432;-85
2021/05/08 08:53:42;;;;;;;6.85;2.97;;;;;;;-143.98;100.00;68091.63;5044362;28;20053;-84
2021/05/08 08:56:23;;;;;;;4.05;2.80;;;;;;;-143.98;100.00;68091.63;5028377;28;20056;-85
2021/05/08 08:58:56;;;;;;;5.47;2.80;;;;;;;-143.98;100.00;68091.63;5044079;28;20055;-85
2021/05/08 09:01:30;;;;;;;7.97;3.00;;;;;;;-143.98;100.00;68091.63;5031852;28;20225;-85
2021/05/08 09:03:58;;;;;;;8.18;2.85;;;;;;;-143.98;100.00;68091.63;5043047;28;20061;-84
2021/05/08 09:06:25;;;;;;;7.07;2.42;;;;;;;-143.98;100.00;68091.63;5043843;28;20108;-84
2021/05/08 09:08:53;;;;;;;7.13;3.53;;;;;;;-143.98;100.00;68091.63;5028212;28;20049;-84
2021/05/08 09:11:27;;;;;;;7.82;3.05;;;;;;;-143.98;100.00;68091.63;5028179;28;20123;-84
2021/05/08 09:14:19;;;;;;;4.50;3.03;;;;;;;-143.98;100.00;68091.63;5028953;28;20080;-85
2021/05/08 09:17:13;;;;;;;9.27;3.83;;;;;;;-143.98;100.00;68091.63;5028108;28;20048;-83
2021/05/08 09:19:41;;;;;;;6.82;3.10;;;;;;;-143.98;100.00;68091.63;5043351;28;20287;-84
2021/05/08 09:22:37;;;;;;;9.90;3.20;;;;;;;-143.98;100.00;68091.63;5024867;28;20053;-84
2021/05/08 09:25:11;;;;;;;4.78;3.15;;;;;;;-143.98;100.00;68091.63;5018617;28;20595;-84
2021/05/08 09:27:45;;;;;;;13.43;3.92;;;;;;;-143.98;100.00;68091.63;5062364;28;20049;-85
2021/05/08 09:30:31;;;;;;;11.10;3.38;;;;;;;-143.98;100.00;68091.63;5027376;28;20045;-84
2021/05/08 09:32:59;;;;;;;7.53;3.57;;;;;;;-143.98;100.00;68091.63;5043774;28;20340;-85
2021/05/08 09:35:30;;;;;;;7.07;3.63;;;;;;;-143.98;100.00;68091.63;5063507;28;20790;-85
2021/05/08 09:38:18;;;;;;;6.97;4.38;;;;;;;-143.98;100.00;68091.63;5021690;28;20049;-84
2021/05/08 09:40:48;;;;;;;7.18;3.40;;;;;;;-143.98;100.00;68091.63;5034473;28;20088;-85
2021/05/08 09:43:17;;;;;;;8.70;3.80;;;;;;;-143.98;100.00;68091.63;5025709;28;20054;-85
2021/05/08 09:45:47;;;;;;;7.22;3.80;;;;;;;-143.98;100.00;68091.63;5008482;28;20073;-85
2021/05/08 09:48:17;;;;;;;7.32;3.30;;;;;;;-143.98;100.00;68091.63;5030335;28;20054;-84
2021/05/08 09:51:22;;;;;;;6.40;3.88;;;;;;;-143.98;100.00;68091.63;5037374;28;20053;-86
2021/05/08 09:53:49;;;;;;;7.75;3.40;;;;;;;-143.98;100.00;68091.63;5009063;28;20410;-85
2021/05/08 09:56:37;;;;;;;8.95;3.50;;;;;;;-143.98;100.00;68091.63;5011387;28;20053;-85
2021/05/08 09:59:47;;;;;;;6.13;3.50;;;;;;;-143.98;100.00;68091.63;5044755;28;20198;-85
2021/05/08 10:02:14;;;;;;;6.68;3.42;;;;;;;-143.98;100.00;68091.63;5060887;28;20431;-85
2021/05/08 10:05:13;;;;;;;;;;;;;;;-143.98;100.00;68091.63;5033818;28;20052;-85
2021/05/08 10:07:42;;;;;;;5.65;3.17;;;;;;;-143.98;100.00;68091.63;5025792;28;19937;-84
2021/05/08 10:10:08;;;;;;;6.88;3.80;;;;;;;-143.98;100.00;68091.63;5008719;28;20103;-84
2021/05/08 10:12:35;;;;;;;10.20;3.67;;;;;;;-143.98;100.00;68091.63;5023657;28;20049;-84
2021/05/08 10:15:11;;;;;;;10.85;3.60;;;;;;;-143.98;100.00;68091.63;5022884;28;20107;-84
2021/05/08 10:17:37;;;;;;;7.35;3.53;;;;;;;-143.98;100.00;68091.63;5005113;28;20071;-84
2021/05/08 10:20:16;;;;;;;6.63;3.63;;;;;;;-143.98;100.00;68091.63;5020475;28;20080;-84
2021/05/08 10:23:09;;;;;;;6.90;3.15;;;;;;;-143.98;100.00;68091.63;5035824;28;20064;-84
2021/05/08 10:25:39;;;;;;;10.80;3.42;;;;;;;-143.98;100.00;68091.63;5035733;28;20049;-84
2021/05/08 10:28:07;;;;;;;8.85;3.30;;;;;;;-143.98;100.00;68091.63;5024781;28;20110;-85
2021/05/08 10:30:44;;;;;;;6.07;3.42;;;;;;;-143.98;100.00;68091.63;5040134;28;20113;-84
2021/05/08 10:33:14;;;;;;;7.75;3.78;;;;;;;-143.98;100.00;68091.63;5042473;28;20075;-84
2021/05/08 10:35:45;;;;;;;12.52;4.30;;;;;;;-143.98;100.00;68091.63;5021727;28;20053;-84
2021/05/08 10:38:37;;;;;;;8.38;3.70;;;;;;;-143.98;100.00;68091.63;5022289;28;20041;-84
2021/05/08 10:41:11;;;;;;;6.75;3.47;;;;;;;-143.98;100.00;68091.63;5023521;28;20081;-84
2021/05/08 10:43:55;;;;;;;8.70;3.58;;;;;;;-143.98;100.00;68091.63;5024087;28;20073;-84
2021/05/08 10:46:24;;;;;;;7.75;4.03;;;;;;;-143.98;100.00;68091.63;5034232;28;20040;-84
2021/05/08 10:49:16;;;;;;;6.88;4.43;;;;;;;-143.98;100.00;68091.63;5032308;28;20064;-85
2021/05/08 10:51:52;;;;;;;8.90;3.78;;;;;;;-143.98;100.00;68091.63;5026597;28;20083;-83
2021/05/08 10:54:41;;;;;;;7.40;4.17;;;;;;;-143.98;100.00;68091.63;5042884;28;20054;-84
2021/05/08 10:57:28;;;;;;;8.88;3.83;;;;;;;-143.98;100.00;68091.63;5039054;28;21088;-84
2021/05/08 11:00:08;;;;;;;5.10;3.67;;;;;;;-143.98;100.00;68091.63;5041156;28;20057;-84
2021/05/08 11:02:44;;;;;;;23.48;5.00;;;;;;;-143.98;100.00;68091.63;5044189;28;20045;-84
2021/05/08 11:05:35;;;;;;;9.15;4.10;;;;;;;-143.98;100.00;68091.63;5044130;28;20061;-83
2021/05/08 11:08:24;;;;;;;6.60;3.95;;;;;;;-143.98;100.00;68091.63;5028859;28;20053;-84
2021/05/08 11:10:55;;;;;;;5.85;3.75;;;;;;;-143.98;100.00;68091.63;5060944;28;20059;-84
2021/05/08 11:13:24;;;;;;;7.60;4.28;;;;;;;-143.98;100.00;68091.63;5047030;28;20117;-84
2021/05/08 11:15:53;;;;;;;7.07;4.18;;;;;;;-143.98;100.00;68091.63;5066451;28;20060;-84
2021/05/08 11:18:35;;;;;;;6.95;4.50;;;;;;;-143.98;100.00;68091.63;5049515;28;20056;-84
2021/05/08 11:21:18;;;;;;;7.28;4.40;;;;;;;-143.98;100.00;68091.63;5056897;28;20095;-84
2021/05/08 11:24:09;;;;;;;8.07;4.75;;;;;;;-143.98;100.00;68091.63;5066243;28;20052;-85
2021/05/08 11:26:43;;;;;;;9.38;4.20;;;;;;;-143.98;100.00;68091.63;5048335;28;20108;-85